sensor_id;sensor_type;location;lat;lon;timestamp;pressure;altitude;pressure_sealevel;temperature;humidity
15884;BME280;8040;50.254;10.960;2022-08-07T00:01:30;99051.75;;;18.06;40.83
15884;BME280;8040;50.254;10.960;2022-08-07T00:04:15;99056.94;;;17.99;40.81
15884;BME280;8040;50.254;10.960;2022-08-07T00:06:59;99048.22;;;17.97;40.94
15884;BME280;8040;50.254;10.960;2022-08-07T00:09:43;99051.63;;;17.94;41.02
15884;BME280;8040;50.254;10.960;2022-08-07T00:12:27;99050.84;;;17.85;41.40
15884;BME280;8040;50.254;10.960;2022-08-07T00:15:11;99040.66;;;17.85;41.70
15884;BME280;8040;50.254;10.960;2022-08-07T00:17:55;99041.66;;;17.81;41.68
15884;BME280;8040;50.254;10.960;2022-08-07T00:20:39;99039.41;;;17.74;42.12
15884;BME280;8040;50.254;10.960;2022-08-07T00:23:23;99035.22;;;17.68;42.16
15884;BME280;8040;50.254;10.960;2022-08-07T00:26:08;99035.72;;;17.62;42.18
15884;BME280;8040;50.254;10.960;2022-08-07T00:28:52;99029.13;;;17.54;42.86
15884;BME280;8040;50.254;10.960;2022-08-07T00:31:36;99029.78;;;17.51;42.85
15884;BME280;8040;50.254;10.960;2022-08-07T00:34:20;99023.31;;;17.47;42.69
15884;BME280;8040;50.254;10.960;2022-08-07T00:37:04;99025.41;;;17.42;42.99
15884;BME280;8040;50.254;10.960;2022-08-07T00:39:48;99030.75;;;17.38;43.20
15884;BME280;8040;50.254;10.960;2022-08-07T00:42:32;99019.78;;;17.38;43.18
15884;BME280;8040;50.254;10.960;2022-08-07T00:45:16;99017.19;;;17.33;43.20
15884;BME280;8040;50.254;10.960;2022-08-07T00:48:00;99027.97;;;17.30;43.13
15884;BME280;8040;50.254;10.960;2022-08-07T00:50:44;99023.00;;;17.23;43.52
15884;BME280;8040;50.254;10.960;2022-08-07T00:53:28;99022.03;;;17.19;43.57
15884;BME280;8040;50.254;10.960;2022-08-07T00:56:12;99019.78;;;17.13;43.94
15884;BME280;8040;50.254;10.960;2022-08-07T00:58:58;99023.97;;;17.10;44.03
15884;BME280;8040;50.254;10.960;2022-08-07T01:01:42;99020.09;;;17.11;43.92
15884;BME280;8040;50.254;10.960;2022-08-07T01:04:26;99019.94;;;17.08;43.96
15884;BME280;8040;50.254;10.960;2022-08-07T01:07:10;99019.94;;;17.08;44.04
15884;BME280;8040;50.254;10.960;2022-08-07T01:09:54;99019.47;;;17.06;43.86
15884;BME280;8040;50.254;10.960;2022-08-07T01:12:39;99019.13;;;17.07;44.39
15884;BME280;8040;50.254;10.960;2022-08-07T01:15:24;99024.44;;;17.04;44.06
15884;BME280;8040;50.254;10.960;2022-08-07T01:18:08;99016.53;;;17.02;44.16
15884;BME280;8040;50.254;10.960;2022-08-07T01:20:53;99015.59;;;16.98;43.99
15884;BME280;8040;50.254;10.960;2022-08-07T01:23:40;99021.06;;;16.98;44.00
15884;BME280;8040;50.254;10.960;2022-08-07T01:26:24;99017.66;;;16.93;43.77
15884;BME280;8040;50.254;10.960;2022-08-07T01:29:08;99021.22;;;16.93;43.86
15884;BME280;8040;50.254;10.960;2022-08-07T01:31:53;99016.56;;;16.94;43.76
15884;BME280;8040;50.254;10.960;2022-08-07T01:34:38;99016.56;;;16.94;44.10
15884;BME280;8040;50.254;10.960;2022-08-07T01:37:21;99017.50;;;16.89;43.90
15884;BME280;8040;50.254;10.960;2022-08-07T01:40:05;99017.50;;;16.89;44.18
15884;BME280;8040;50.254;10.960;2022-08-07T01:42:50;99025.41;;;16.82;43.93
15884;BME280;8040;50.254;10.960;2022-08-07T01:45:34;99021.88;;;16.82;44.42
15884;BME280;8040;50.254;10.960;2022-08-07T01:48:18;99023.31;;;16.79;44.41
15884;BME280;8040;50.254;10.960;2022-08-07T01:51:02;99029.44;;;16.76;44.28
15884;BME280;8040;50.254;10.960;2022-08-07T01:53:52;99023.78;;;16.73;44.45
15884;BME280;8040;50.254;10.960;2022-08-07T01:57:11;99021.34;;;16.71;45.02
15884;BME280;8040;50.254;10.960;2022-08-07T01:59:54;99022.63;;;16.65;44.77
15884;BME280;8040;50.254;10.960;2022-08-07T02:02:43;99018.63;;;16.63;44.92
15884;BME280;8040;50.254;10.960;2022-08-07T02:05:35;99023.75;;;16.56;45.10
15884;BME280;8040;50.254;10.960;2022-08-07T02:08:21;99017.78;;;16.54;45.40
15884;BME280;8040;50.254;10.960;2022-08-07T02:11:06;99018.75;;;16.49;45.41
15884;BME280;8040;50.254;10.960;2022-08-07T02:13:51;99017.16;;;16.48;45.66
15884;BME280;8040;50.254;10.960;2022-08-07T02:16:37;99020.03;;;16.43;45.23
15884;BME280;8040;50.254;10.960;2022-08-07T02:19:21;99008.09;;;16.39;45.59
15884;BME280;8040;50.254;10.960;2022-08-07T02:22:06;99010.16;;;16.34;45.80
15884;BME280;8040;50.254;10.960;2022-08-07T02:24:50;99014.00;;;16.33;45.55
15884;BME280;8040;50.254;10.960;2022-08-07T02:27:35;99004.66;;;16.25;45.94
15884;BME280;8040;50.254;10.960;2022-08-07T02:30:20;99010.13;;;16.25;46.10
15884;BME280;8040;50.254;10.960;2022-08-07T02:33:04;99017.03;;;16.23;46.22
15884;BME280;8040;50.254;10.960;2022-08-07T02:35:48;99004.78;;;16.20;46.17
15884;BME280;8040;50.254;10.960;2022-08-07T02:38:34;99006.06;;;16.14;46.39
15884;BME280;8040;50.254;10.960;2022-08-07T02:41:19;99003.44;;;16.09;46.93
15884;BME280;8040;50.254;10.960;2022-08-07T02:44:03;98998.63;;;16.07;46.65
15884;BME280;8040;50.254;10.960;2022-08-07T02:46:47;98994.41;;;16.01;46.57
15884;BME280;8040;50.254;10.960;2022-08-07T02:49:33;98999.91;;;16.01;47.16
15884;BME280;8040;50.254;10.960;2022-08-07T02:52:33;98998.75;;;16.02;47.01
15884;BME280;8040;50.254;10.960;2022-08-07T02:55:21;99002.13;;;15.98;46.96
15884;BME280;8040;50.254;10.960;2022-08-07T02:58:06;98993.44;;;15.97;47.62
15884;BME280;8040;50.254;10.960;2022-08-07T03:00:53;98996.31;;;15.92;47.13
15884;BME280;8040;50.254;10.960;2022-08-07T03:03:39;98994.22;;;15.89;47.47
15884;BME280;8040;50.254;10.960;2022-08-07T03:06:23;98985.69;;;15.90;47.89
15884;BME280;8040;50.254;10.960;2022-08-07T03:09:08;98989.53;;;15.89;47.84
15884;BME280;8040;50.254;10.960;2022-08-07T03:11:53;98986.63;;;15.86;48.14
15884;BME280;8040;50.254;10.960;2022-08-07T03:14:36;98985.66;;;15.82;47.87
15884;BME280;8040;50.254;10.960;2022-08-07T03:17:22;98978.38;;;15.77;47.59
15884;BME280;8040;50.254;10.960;2022-08-07T03:20:06;98972.09;;;15.77;47.67
15884;BME280;8040;50.254;10.960;2022-08-07T03:22:51;98979.81;;;15.75;47.87
15884;BME280;8040;50.254;10.960;2022-08-07T03:25:37;98966.47;;;15.73;47.69
15884;BME280;8040;50.254;10.960;2022-08-07T03:28:21;98977.41;;;15.73;47.89
15884;BME280;8040;50.254;10.960;2022-08-07T03:31:06;98964.84;;;15.72;48.02
15884;BME280;8040;50.254;10.960;2022-08-07T03:34:03;98969.03;;;15.70;47.98
15884;BME280;8040;50.254;10.960;2022-08-07T03:36:50;98975.59;;;15.69;48.04
15884;BME280;8040;50.254;10.960;2022-08-07T03:39:35;98977.22;;;15.70;48.20
15884;BME280;8040;50.254;10.960;2022-08-07T03:42:21;98974.50;;;15.70;47.97
15884;BME280;8040;50.254;10.960;2022-08-07T03:45:06;98973.19;;;15.67;48.12
15884;BME280;8040;50.254;10.960;2022-08-07T03:47:50;98976.25;;;15.66;48.37
15884;BME280;8040;50.254;10.960;2022-08-07T03:50:34;98983.44;;;15.62;48.05
15884;BME280;8040;50.254;10.960;2022-08-07T03:53:18;98974.44;;;15.61;48.56
15884;BME280;8040;50.254;10.960;2022-08-07T03:56:02;98973.16;;;15.59;48.10
15884;BME280;8040;50.254;10.960;2022-08-07T03:58:46;98962.16;;;15.50;48.73
15884;BME280;8040;50.254;10.960;2022-08-07T04:01:31;98977.00;;;15.58;48.91
15884;BME280;8040;50.254;10.960;2022-08-07T04:04:16;98974.75;;;15.60;49.13
15884;BME280;8040;50.254;10.960;2022-08-07T04:07:01;98977.50;;;15.60;49.12
15884;BME280;8040;50.254;10.960;2022-08-07T04:09:45;98976.88;;;15.63;49.24
15884;BME280;8040;50.254;10.960;2022-08-07T04:12:29;98978.63;;;15.59;49.16
15884;BME280;8040;50.254;10.960;2022-08-07T04:15:13;98975.06;;;15.58;48.71
15884;BME280;8040;50.254;10.960;2022-08-07T04:17:59;98980.34;;;15.55;48.68
15884;BME280;8040;50.254;10.960;2022-08-07T04:20:43;98973.16;;;15.59;48.72
15884;BME280;8040;50.254;10.960;2022-08-07T04:23:27;98965.38;;;15.52;48.66
15884;BME280;8040;50.254;10.960;2022-08-07T04:26:11;98971.19;;;15.59;48.48
15884;BME280;8040;50.254;10.960;2022-08-07T04:28:56;98972.03;;;15.60;49.30
15884;BME280;8040;50.254;10.960;2022-08-07T04:31:40;98978.31;;;15.60;49.10
15884;BME280;8040;50.254;10.960;2022-08-07T04:34:24;98980.09;;;15.65;49.51
15884;BME280;8040;50.254;10.960;2022-08-07T04:37:08;98982.69;;;15.70;49.78
15884;BME280;8040;50.254;10.960;2022-08-07T04:39:52;98989.47;;;15.72;49.37
15884;BME280;8040;50.254;10.960;2022-08-07T04:42:36;98993.34;;;15.80;49.25
15884;BME280;8040;50.254;10.960;2022-08-07T04:45:20;98994.81;;;15.86;48.72
15884;BME280;8040;50.254;10.960;2022-08-07T04:48:09;98991.66;;;15.92;48.97
15884;BME280;8040;50.254;10.960;2022-08-07T04:50:59;98988.44;;;15.98;48.63
15884;BME280;8040;50.254;10.960;2022-08-07T04:53:49;98995.56;;;16.08;48.60
15884;BME280;8040;50.254;10.960;2022-08-07T04:56:43;98989.19;;;16.21;47.05
15884;BME280;8040;50.254;10.960;2022-08-07T04:59:40;98995.69;;;16.42;47.60
15884;BME280;8040;50.254;10.960;2022-08-07T05:02:31;99002.97;;;16.63;47.14
15884;BME280;8040;50.254;10.960;2022-08-07T05:05:21;99003.00;;;16.72;47.13
15884;BME280;8040;50.254;10.960;2022-08-07T05:10:58;99002.50;;;16.87;45.67
15884;BME280;8040;50.254;10.960;2022-08-07T05:14:03;98996.72;;;16.97;45.64
15884;BME280;8040;50.254;10.960;2022-08-07T05:16:48;99004.47;;;17.03;45.46
15884;BME280;8040;50.254;10.960;2022-08-07T05:19:35;99007.53;;;17.10;43.83
15884;BME280;8040;50.254;10.960;2022-08-07T05:22:20;99013.00;;;17.19;42.20
15884;BME280;8040;50.254;10.960;2022-08-07T05:25:06;99006.19;;;17.50;42.33
15884;BME280;8040;50.254;10.960;2022-08-07T05:27:50;99000.22;;;17.65;40.89
15884;BME280;8040;50.254;10.960;2022-08-07T05:30:35;99009.84;;;17.88;40.02
15884;BME280;8040;50.254;10.960;2022-08-07T05:33:20;99002.75;;;18.16;39.38
15884;BME280;8040;50.254;10.960;2022-08-07T05:36:08;98998.19;;;18.78;39.26
15884;BME280;8040;50.254;10.960;2022-08-07T05:38:52;99001.59;;;20.26;36.73
15884;BME280;8040;50.254;10.960;2022-08-07T05:41:37;99006.28;;;21.25;33.51
15884;BME280;8040;50.254;10.960;2022-08-07T05:44:21;99008.69;;;21.54;33.22
15884;BME280;8040;50.254;10.960;2022-08-07T05:47:05;99007.34;;;21.75;33.07
15884;BME280;8040;50.254;10.960;2022-08-07T05:49:50;99005.69;;;21.31;32.64
15884;BME280;8040;50.254;10.960;2022-08-07T05:52:34;99010.34;;;21.15;33.94
15884;BME280;8040;50.254;10.960;2022-08-07T05:55:18;98999.97;;;21.79;33.15
15884;BME280;8040;50.254;10.960;2022-08-07T05:58:02;99003.38;;;22.19;31.76
15884;BME280;8040;50.254;10.960;2022-08-07T06:00:47;99007.66;;;22.48;31.15
15884;BME280;8040;50.254;10.960;2022-08-07T06:03:32;99012.88;;;22.68;31.05
15884;BME280;8040;50.254;10.960;2022-08-07T06:06:18;99005.72;;;23.02;30.68
15884;BME280;8040;50.254;10.960;2022-08-07T06:09:03;99008.25;;;22.72;30.85
15884;BME280;8040;50.254;10.960;2022-08-07T06:11:47;99007.28;;;22.65;30.92
15884;BME280;8040;50.254;10.960;2022-08-07T06:14:32;99010.88;;;22.19;31.98
15884;BME280;8040;50.254;10.960;2022-08-07T06:17:17;99009.19;;;21.71;32.53
15884;BME280;8040;50.254;10.960;2022-08-07T06:20:02;99009.03;;;21.25;33.26
15884;BME280;8040;50.254;10.960;2022-08-07T06:22:46;99007.75;;;20.95;33.97
15884;BME280;8040;50.254;10.960;2022-08-07T06:25:30;99000.09;;;20.64;34.49
15884;BME280;8040;50.254;10.960;2022-08-07T06:28:14;99001.16;;;20.36;35.52
15884;BME280;8040;50.254;10.960;2022-08-07T06:30:59;99001.03;;;20.20;35.84
15884;BME280;8040;50.254;10.960;2022-08-07T06:33:43;99001.03;;;20.08;35.96
15884;BME280;8040;50.254;10.960;2022-08-07T06:36:28;99000.06;;;20.04;36.13
15884;BME280;8040;50.254;10.960;2022-08-07T06:39:12;99004.38;;;20.26;35.80
15884;BME280;8040;50.254;10.960;2022-08-07T06:41:59;98998.03;;;20.49;35.80
15884;BME280;8040;50.254;10.960;2022-08-07T06:44:46;98993.94;;;20.07;35.26
15884;BME280;8040;50.254;10.960;2022-08-07T06:47:30;98999.88;;;20.09;36.03
15884;BME280;8040;50.254;10.960;2022-08-07T06:50:15;98999.19;;;20.12;36.09
15884;BME280;8040;50.254;10.960;2022-08-07T06:52:59;98995.38;;;19.93;35.66
15884;BME280;8040;50.254;10.960;2022-08-07T06:55:44;99000.03;;;19.80;36.04
15884;BME280;8040;50.254;10.960;2022-08-07T06:58:29;98997.28;;;19.80;36.49
15884;BME280;8040;50.254;10.960;2022-08-07T07:01:14;98999.50;;;19.99;36.54
15884;BME280;8040;50.254;10.960;2022-08-07T07:03:59;98998.34;;;20.00;35.97
15884;BME280;8040;50.254;10.960;2022-08-07T07:06:44;99002.19;;;20.07;35.76
15884;BME280;8040;50.254;10.960;2022-08-07T07:09:29;99002.72;;;20.01;35.75
15884;BME280;8040;50.254;10.960;2022-08-07T07:15:35;99006.78;;;20.27;35.94
15884;BME280;8040;50.254;10.960;2022-08-07T07:18:29;99001.50;;;20.22;35.51
15884;BME280;8040;50.254;10.960;2022-08-07T07:21:14;99003.53;;;20.25;35.82
15884;BME280;8040;50.254;10.960;2022-08-07T07:23:59;99002.06;;;20.28;35.50
15884;BME280;8040;50.254;10.960;2022-08-07T07:26:45;98998.50;;;20.15;35.49
15884;BME280;8040;50.254;10.960;2022-08-07T07:29:29;98998.50;;;20.27;35.95
15884;BME280;8040;50.254;10.960;2022-08-07T07:32:15;98993.91;;;20.43;35.64
15884;BME280;8040;50.254;10.960;2022-08-07T07:35:00;98985.19;;;20.41;35.31
15884;BME280;8040;50.254;10.960;2022-08-07T07:37:45;98985.88;;;20.62;36.01
15884;BME280;8040;50.254;10.960;2022-08-07T07:40:30;98982.81;;;20.79;35.50
15884;BME280;8040;50.254;10.960;2022-08-07T07:43:16;98981.81;;;20.96;35.10
15884;BME280;8040;50.254;10.960;2022-08-07T07:46:00;98981.88;;;21.11;35.56
15884;BME280;8040;50.254;10.960;2022-08-07T07:48:45;98980.47;;;21.17;34.61
15884;BME280;8040;50.254;10.960;2022-08-07T07:51:31;98979.94;;;21.27;34.93
15884;BME280;8040;50.254;10.960;2022-08-07T07:54:16;98983.72;;;21.35;34.60
15884;BME280;8040;50.254;10.960;2022-08-07T07:57:00;98978.47;;;21.45;34.82
15884;BME280;8040;50.254;10.960;2022-08-07T07:59:45;98980.91;;;21.47;34.49
15884;BME280;8040;50.254;10.960;2022-08-07T08:02:31;98972.97;;;21.45;34.71
15884;BME280;8040;50.254;10.960;2022-08-07T08:05:16;98981.09;;;21.54;34.83
15884;BME280;8040;50.254;10.960;2022-08-07T08:08:00;98976.38;;;21.54;34.53
15884;BME280;8040;50.254;10.960;2022-08-07T08:10:46;98979.81;;;21.51;34.67
15884;BME280;8040;50.254;10.960;2022-08-07T08:13:30;98986.91;;;21.37;34.84
15884;BME280;8040;50.254;10.960;2022-08-07T08:16:16;98979.53;;;21.41;35.04
15884;BME280;8040;50.254;10.960;2022-08-07T08:19:01;98980.66;;;21.52;34.91
15884;BME280;8040;50.254;10.960;2022-08-07T08:21:46;98976.38;;;21.54;34.83
15884;BME280;8040;50.254;10.960;2022-08-07T08:24:51;98986.56;;;21.38;34.70
15884;BME280;8040;50.254;10.960;2022-08-07T08:28:11;98976.75;;;21.25;34.55
15884;BME280;8040;50.254;10.960;2022-08-07T08:30:58;98974.72;;;21.38;34.55
15884;BME280;8040;50.254;10.960;2022-08-07T08:33:43;98976.00;;;21.56;35.40
15884;BME280;8040;50.254;10.960;2022-08-07T08:36:28;98968.16;;;21.70;35.69
15884;BME280;8040;50.254;10.960;2022-08-07T08:39:12;98973.59;;;21.82;34.88
15884;BME280;8040;50.254;10.960;2022-08-07T08:42:02;98968.94;;;21.86;33.66
15884;BME280;8040;50.254;10.960;2022-08-07T08:45:51;98969.03;;;21.89;33.90
15884;BME280;8040;50.254;10.960;2022-08-07T08:50:46;98957.19;;;22.04;32.73
15884;BME280;8040;50.254;10.960;2022-08-07T08:53:36;98955.03;;;22.13;32.51
15884;BME280;8040;50.254;10.960;2022-08-07T08:56:39;98948.91;;;22.20;32.59
15884;BME280;8040;50.254;10.960;2022-08-07T09:07:44;98933.81;;;22.33;33.98
15884;BME280;8040;50.254;10.960;2022-08-07T09:13:36;98919.50;;;21.96;32.81
15884;BME280;8040;50.254;10.960;2022-08-07T09:19:31;98932.84;;;22.10;31.54
15884;BME280;8040;50.254;10.960;2022-08-07T09:22:28;98930.72;;;22.19;32.02
15884;BME280;8040;50.254;10.960;2022-08-07T09:25:20;98935.34;;;22.15;31.44
15884;BME280;8040;50.254;10.960;2022-08-07T09:28:08;98926.72;;;22.16;31.31
15884;BME280;8040;50.254;10.960;2022-08-07T09:30:55;98937.06;;;21.88;31.33
15884;BME280;8040;50.254;10.960;2022-08-07T09:39:44;98921.00;;;22.25;31.14
15884;BME280;8040;50.254;10.960;2022-08-07T09:45:39;98899.28;;;22.42;31.53
15884;BME280;8040;50.254;10.960;2022-08-07T09:48:29;98905.63;;;22.43;30.95
15884;BME280;8040;50.254;10.960;2022-08-07T09:54:12;98894.28;;;22.48;30.43
15884;BME280;8040;50.254;10.960;2022-08-07T10:00:01;98881.25;;;22.48;30.32
15884;BME280;8040;50.254;10.960;2022-08-07T10:03:06;98882.00;;;22.45;30.30
15884;BME280;8040;50.254;10.960;2022-08-07T10:09:03;98883.91;;;22.60;30.19
15884;BME280;8040;50.254;10.960;2022-08-07T10:17:55;98865.84;;;22.66;29.77
15884;BME280;8040;50.254;10.960;2022-08-07T10:24:22;98856.59;;;22.78;29.92
15884;BME280;8040;50.254;10.960;2022-08-07T10:30:06;98833.91;;;22.69;30.03
15884;BME280;8040;50.254;10.960;2022-08-07T10:32:59;98831.41;;;22.83;29.95
15884;BME280;8040;50.254;10.960;2022-08-07T10:38:58;98823.22;;;23.09;30.01
15884;BME280;8040;50.254;10.960;2022-08-07T10:41:48;98823.66;;;23.11;29.02
15884;BME280;8040;50.254;10.960;2022-08-07T10:44:47;98820.25;;;23.17;28.65
15884;BME280;8040;50.254;10.960;2022-08-07T10:59:46;98818.28;;;23.18;27.88
15884;BME280;8040;50.254;10.960;2022-08-07T11:08:15;98804.81;;;23.16;27.45
15884;BME280;8040;50.254;10.960;2022-08-07T11:14:15;98783.94;;;23.22;27.28
15884;BME280;8040;50.254;10.960;2022-08-07T11:17:02;98791.22;;;23.30;27.88
15884;BME280;8040;50.254;10.960;2022-08-07T11:19:52;98788.25;;;23.42;27.25
15884;BME280;8040;50.254;10.960;2022-08-07T11:22:50;98787.34;;;23.35;27.02
15884;BME280;8040;50.254;10.960;2022-08-07T11:26:12;98776.22;;;23.31;27.60
15884;BME280;8040;50.254;10.960;2022-08-07T11:31:36;98773.25;;;23.43;27.00
15884;BME280;8040;50.254;10.960;2022-08-07T11:43:04;98767.03;;;23.76;26.80
15884;BME280;8040;50.254;10.960;2022-08-07T11:48:45;98757.78;;;23.91;27.15
15884;BME280;8040;50.254;10.960;2022-08-07T11:57:08;98757.50;;;23.99;27.15
15884;BME280;8040;50.254;10.960;2022-08-07T11:59:57;98757.38;;;24.18;27.10
15884;BME280;8040;50.254;10.960;2022-08-07T12:05:54;98753.75;;;24.14;26.22
15884;BME280;8040;50.254;10.960;2022-08-07T12:08:49;98745.97;;;24.23;25.95
15884;BME280;8040;50.254;10.960;2022-08-07T12:11:45;98738.22;;;24.39;29.64
15884;BME280;8040;50.254;10.960;2022-08-07T12:14:31;98741.19;;;24.53;31.15
15884;BME280;8040;50.254;10.960;2022-08-07T12:17:18;98736.94;;;24.59;29.69
15884;BME280;8040;50.254;10.960;2022-08-07T12:20:11;98739.34;;;24.64;26.13
15884;BME280;8040;50.254;10.960;2022-08-07T12:23:15;98730.09;;;24.53;25.47
15884;BME280;8040;50.254;10.960;2022-08-07T12:26:03;98742.84;;;24.58;25.31
15884;BME280;8040;50.254;10.960;2022-08-07T12:34:56;98734.00;;;24.19;25.06
15884;BME280;8040;50.254;10.960;2022-08-07T12:37:40;98726.22;;;24.28;25.74
15884;BME280;8040;50.254;10.960;2022-08-07T12:40:29;98720.28;;;24.30;25.45
15884;BME280;8040;50.254;10.960;2022-08-07T12:43:18;98719.91;;;24.31;25.54
15884;BME280;8040;50.254;10.960;2022-08-07T12:46:05;98711.25;;;24.36;25.67
15884;BME280;8040;50.254;10.960;2022-08-07T12:51:53;98706.03;;;24.64;25.62
15884;BME280;8040;50.254;10.960;2022-08-07T12:54:48;98703.00;;;24.76;27.41
15884;BME280;8040;50.254;10.960;2022-08-07T12:57:36;98687.25;;;24.87;26.09
15884;BME280;8040;50.254;10.960;2022-08-07T13:00:22;98693.72;;;25.02;28.90
15884;BME280;8040;50.254;10.960;2022-08-07T13:03:11;98688.22;;;25.09;29.45
15884;BME280;8040;50.254;10.960;2022-08-07T13:09:06;98676.81;;;25.17;29.27
15884;BME280;8040;50.254;10.960;2022-08-07T13:17:42;98666.91;;;25.20;26.50
15884;BME280;8040;50.254;10.960;2022-08-07T13:20:39;98671.72;;;25.23;25.49
15884;BME280;8040;50.254;10.960;2022-08-07T13:26:32;98664.47;;;25.11;24.02
15884;BME280;8040;50.254;10.960;2022-08-07T13:29:20;98661.31;;;25.16;24.78
15884;BME280;8040;50.254;10.960;2022-08-07T13:32:11;98661.44;;;25.27;24.91
15884;BME280;8040;50.254;10.960;2022-08-07T13:35:33;98653.13;;;25.30;24.19
15884;BME280;8040;50.254;10.960;2022-08-07T13:43:52;98648.81;;;25.36;24.47
15884;BME280;8040;50.254;10.960;2022-08-07T13:46:38;98647.28;;;25.46;24.58
15884;BME280;8040;50.254;10.960;2022-08-07T13:49:31;98637.72;;;25.43;23.55
15884;BME280;8040;50.254;10.960;2022-08-07T13:52:16;98641.34;;;25.47;23.18
15884;BME280;8040;50.254;10.960;2022-08-07T13:55:20;98639.75;;;25.46;23.50
15884;BME280;8040;50.254;10.960;2022-08-07T13:58:09;98628.97;;;25.38;23.98
15884;BME280;8040;50.254;10.960;2022-08-07T14:01:14;98635.72;;;25.37;23.91
15884;BME280;8040;50.254;10.960;2022-08-07T14:04:09;98634.91;;;25.36;23.67
15884;BME280;8040;50.254;10.960;2022-08-07T14:06:54;98626.19;;;25.34;23.14
15884;BME280;8040;50.254;10.960;2022-08-07T14:09:39;98622.69;;;25.44;23.55
15884;BME280;8040;50.254;10.960;2022-08-07T14:15:09;98626.28;;;25.52;23.83
15884;BME280;8040;50.254;10.960;2022-08-07T14:21:09;98613.56;;;25.47;23.52
15884;BME280;8040;50.254;10.960;2022-08-07T14:24:03;98618.72;;;25.45;23.64
15884;BME280;8040;50.254;10.960;2022-08-07T14:26:49;98628.63;;;25.46;23.48
15884;BME280;8040;50.254;10.960;2022-08-07T14:29:35;98612.38;;;25.48;23.55
15884;BME280;8040;50.254;10.960;2022-08-07T14:32:20;98615.97;;;25.52;23.10
15884;BME280;8040;50.254;10.960;2022-08-07T14:35:06;98605.69;;;25.56;23.27
15884;BME280;8040;50.254;10.960;2022-08-07T14:37:51;98606.84;;;25.55;23.43
15884;BME280;8040;50.254;10.960;2022-08-07T14:40:36;98607.25;;;25.54;22.91
15884;BME280;8040;50.254;10.960;2022-08-07T14:43:22;98599.69;;;25.54;23.31
15884;BME280;8040;50.254;10.960;2022-08-07T14:46:08;98600.94;;;25.60;23.16
15884;BME280;8040;50.254;10.960;2022-08-07T14:48:54;98588.63;;;25.65;23.03
15884;BME280;8040;50.254;10.960;2022-08-07T14:51:38;98597.00;;;25.68;22.91
15884;BME280;8040;50.254;10.960;2022-08-07T14:54:28;98587.91;;;25.75;23.28
15884;BME280;8040;50.254;10.960;2022-08-07T14:57:14;98583.16;;;25.82;24.05
15884;BME280;8040;50.254;10.960;2022-08-07T14:59:59;98582.78;;;25.84;24.04
15884;BME280;8040;50.254;10.960;2022-08-07T15:02:45;98592.34;;;25.86;22.82
15884;BME280;8040;50.254;10.960;2022-08-07T15:05:29;98585.56;;;25.87;23.00
15884;BME280;8040;50.254;10.960;2022-08-07T15:08:21;98585.63;;;25.91;24.54
15884;BME280;8040;50.254;10.960;2022-08-07T15:11:07;98583.22;;;25.93;23.57
15884;BME280;8040;50.254;10.960;2022-08-07T15:13:56;98578.81;;;25.81;22.75
15884;BME280;8040;50.254;10.960;2022-08-07T15:16:45;98576.03;;;25.88;23.31
15884;BME280;8040;50.254;10.960;2022-08-07T15:19:33;98577.66;;;25.93;23.63
15884;BME280;8040;50.254;10.960;2022-08-07T15:22:18;98583.25;;;25.96;22.82
15884;BME280;8040;50.254;10.960;2022-08-07T15:25:03;98578.47;;;25.93;22.77
15884;BME280;8040;50.254;10.960;2022-08-07T15:27:56;98574.91;;;25.96;23.01
15884;BME280;8040;50.254;10.960;2022-08-07T15:30:43;98574.50;;;25.98;22.61
15884;BME280;8040;50.254;10.960;2022-08-07T15:33:27;98570.53;;;25.99;23.07
15884;BME280;8040;50.254;10.960;2022-08-07T15:36:12;98571.34;;;25.99;23.14
15884;BME280;8040;50.254;10.960;2022-08-07T15:39:03;98572.13;;;26.00;23.43
15884;BME280;8040;50.254;10.960;2022-08-07T15:41:58;98570.53;;;25.92;22.87
15884;BME280;8040;50.254;10.960;2022-08-07T15:44:44;98567.75;;;25.92;22.80
15884;BME280;8040;50.254;10.960;2022-08-07T15:47:33;98558.22;;;25.93;22.94
15884;BME280;8040;50.254;10.960;2022-08-07T15:50:18;98551.44;;;25.90;22.98
15884;BME280;8040;50.254;10.960;2022-08-07T15:53:04;98560.94;;;25.89;23.17
15884;BME280;8040;50.254;10.960;2022-08-07T15:55:54;98560.94;;;25.89;23.01
15884;BME280;8040;50.254;10.960;2022-08-07T15:58:51;98560.94;;;25.86;22.46
15884;BME280;8040;50.254;10.960;2022-08-07T16:01:40;98559.34;;;25.78;22.36
15884;BME280;8040;50.254;10.960;2022-08-07T16:04:27;98552.22;;;25.84;22.60
15884;BME280;8040;50.254;10.960;2022-08-07T16:07:12;98548.63;;;25.83;22.57
15884;BME280;8040;50.254;10.960;2022-08-07T16:10:09;98551.41;;;25.83;22.42
15884;BME280;8040;50.254;10.960;2022-08-07T16:27:25;98544.19;;;25.65;23.41
15884;BME280;8040;50.254;10.960;2022-08-07T16:30:14;98537.03;;;25.64;23.39
15884;BME280;8040;50.254;10.960;2022-08-07T16:33:10;98535.84;;;25.65;23.37
15884;BME280;8040;50.254;10.960;2022-08-07T16:36:12;98539.03;;;25.67;23.92
15884;BME280;8040;50.254;10.960;2022-08-07T16:42:09;98541.81;;;25.63;23.50
15884;BME280;8040;50.254;10.960;2022-08-07T16:44:58;98544.16;;;25.61;23.68
15884;BME280;8040;50.254;10.960;2022-08-07T16:53:39;98538.56;;;25.54;23.57
15884;BME280;8040;50.254;10.960;2022-08-07T16:59:32;98542.94;;;25.55;24.03
15884;BME280;8040;50.254;10.960;2022-08-07T17:07:53;98548.00;;;25.32;23.92
15884;BME280;8040;50.254;10.960;2022-08-07T17:16:26;98542.44;;;25.25;24.50
15884;BME280;8040;50.254;10.960;2022-08-07T17:19:25;98537.66;;;25.26;24.27
15884;BME280;8040;50.254;10.960;2022-08-07T17:22:18;98536.47;;;25.27;24.19
15884;BME280;8040;50.254;10.960;2022-08-07T17:28:07;98544.69;;;25.13;24.01
15884;BME280;8040;50.254;10.960;2022-08-07T17:31:00;98552.19;;;25.09;24.17
15884;BME280;8040;50.254;10.960;2022-08-07T17:33:58;98548.63;;;25.05;24.37
15884;BME280;8040;50.254;10.960;2022-08-07T17:36:49;98550.91;;;24.96;24.14
15884;BME280;8040;50.254;10.960;2022-08-07T17:45:26;98546.97;;;25.00;24.69
15884;BME280;8040;50.254;10.960;2022-08-07T17:48:19;98553.34;;;25.01;24.66